createdAt,value
2023-05-05T00:05:26.930Z,92.95
2023-05-05T00:08:14.521Z,93.17
2023-05-05T00:11:03.280Z,93.70
2023-05-05T00:13:52.771Z,93.88
2023-05-05T00:16:40.463Z,94.47
2023-05-05T00:19:28.233Z,94.30
2023-05-05T00:22:16.230Z,94.80
2023-05-05T00:25:04.833Z,95.07
2023-05-05T00:27:52.588Z,95.86
2023-05-05T00:30:42.317Z,96.01
2023-05-05T00:33:30.536Z,96.17
2023-05-05T00:36:18.608Z,96.54
2023-05-05T00:39:06.833Z,96.76
2023-05-05T00:41:54.718Z,96.82
2023-05-05T00:44:44.876Z,97.18
2023-05-05T00:47:34.676Z,97.11
2023-05-05T00:50:25.192Z,97.29
2023-05-05T00:53:14.447Z,97.35
2023-05-05T00:56:02.720Z,97.58
2023-05-05T00:58:50.547Z,97.70
2023-05-05T01:01:40.452Z,98.00
2023-05-05T01:04:30.887Z,97.85
2023-05-05T01:07:33.896Z,98.11
2023-05-05T01:10:27.045Z,98.77
2023-05-05T01:13:26.708Z,98.19
2023-05-05T01:16:19.694Z,98.54
2023-05-05T01:19:26.302Z,98.66
2023-05-05T01:22:19.342Z,98.79
2023-05-05T01:25:28.583Z,99.18
2023-05-05T01:28:29.193Z,99.06
2023-05-05T01:31:37.462Z,99.32
2023-05-05T01:34:28.597Z,99.29
2023-05-05T01:37:29.980Z,99.55
2023-05-05T01:40:23.136Z,100.00
2023-05-05T01:43:13.341Z,100.00
2023-05-05T01:46:06.136Z,100.00
2023-05-05T01:48:57.043Z,100.00
2023-05-05T01:51:47.288Z,100.00
2023-05-05T01:54:36.735Z,100.00
2023-05-05T01:57:26.560Z,100.00
2023-05-05T02:00:16.803Z,100.00
2023-05-05T02:03:06.485Z,100.00
2023-05-05T02:05:56.474Z,100.00
2023-05-05T02:08:45.811Z,100.00
2023-05-05T02:11:33.640Z,100.00
2023-05-05T02:14:22.812Z,100.00
2023-05-05T02:17:12.311Z,100.00
2023-05-05T02:20:02.017Z,100.00
2023-05-05T02:22:51.637Z,100.00
2023-05-05T02:25:43.573Z,100.00
2023-05-05T02:28:36.371Z,100.00
2023-05-05T02:31:27.743Z,100.00
2023-05-05T02:34:22.244Z,100.00
2023-05-05T02:37:13.585Z,100.00
2023-05-05T02:40:06.635Z,100.00
2023-05-05T02:42:57.160Z,100.00
2023-05-05T02:45:45.146Z,100.00
2023-05-05T02:48:32.981Z,100.00
2023-05-05T02:51:20.917Z,100.00
2023-05-05T02:54:08.807Z,100.00
2023-05-05T02:57:01.861Z,100.00
2023-05-05T02:59:56.622Z,100.00
2023-05-05T03:02:52.906Z,100.00
2023-05-05T03:05:47.407Z,100.00
2023-05-05T03:08:43.763Z,100.00
2023-05-05T03:11:45.678Z,100.00
2023-05-05T03:14:41.535Z,100.00
2023-05-05T03:17:32.774Z,100.00
2023-05-05T03:20:21.951Z,100.00
2023-05-05T03:23:10.377Z,100.00
2023-05-05T03:25:57.991Z,100.00
2023-05-05T03:28:46.052Z,100.00
2023-05-05T03:31:35.866Z,100.00
2023-05-05T03:34:23.886Z,100.00
2023-05-05T03:37:11.846Z,100.00
2023-05-05T03:39:59.754Z,100.00
2023-05-05T03:42:47.799Z,100.00
2023-05-05T03:45:36.004Z,100.00
2023-05-05T03:48:25.565Z,100.00
2023-05-05T03:51:14.429Z,100.00
2023-05-05T03:54:03.151Z,100.00
2023-05-05T03:56:51.052Z,100.00
2023-05-05T03:59:39.101Z,100.00
2023-05-05T04:02:27.052Z,100.00
2023-05-05T04:05:16.528Z,100.00
2023-05-05T04:08:04.711Z,100.00
2023-05-05T04:10:52.489Z,100.00
2023-05-05T04:13:40.482Z,100.00
2023-05-05T04:16:28.527Z,100.00
2023-05-05T04:19:17.753Z,100.00
2023-05-05T04:22:07.068Z,100.00
2023-05-05T04:24:55.308Z,100.00
2023-05-05T04:27:43.077Z,100.00
2023-05-05T04:30:31.060Z,100.00
2023-05-05T04:33:19.195Z,100.00
2023-05-05T04:36:07.787Z,100.00
2023-05-05T04:38:57.490Z,100.00
2023-05-05T04:41:45.294Z,100.00
2023-05-05T04:44:36.187Z,100.00
2023-05-05T04:47:24.292Z,100.00
2023-05-05T04:50:13.889Z,100.00
2023-05-05T04:53:04.133Z,100.00
2023-05-05T04:55:59.568Z,100.00
2023-05-05T04:58:51.154Z,100.00
2023-05-05T05:01:39.649Z,100.00
2023-05-05T05:04:27.534Z,100.00
2023-05-05T05:07:18.346Z,100.00
2023-05-05T05:10:07.318Z,100.00
2023-05-05T05:12:58.432Z,100.00
2023-05-05T05:15:47.212Z,100.00
2023-05-05T05:18:37.676Z,100.00
2023-05-05T05:21:26.038Z,100.00
2023-05-05T05:24:13.731Z,100.00
2023-05-05T05:27:01.584Z,100.00
2023-05-05T05:29:51.361Z,100.00
2023-05-05T05:32:39.443Z,100.00
2023-05-05T05:35:27.552Z,100.00
2023-05-05T05:38:15.227Z,100.00
2023-05-05T05:41:07.758Z,100.00
2023-05-05T05:43:55.530Z,100.00
2023-05-05T05:46:45.086Z,100.00
2023-05-05T05:49:32.953Z,100.00
2023-05-05T05:52:21.136Z,100.00
2023-05-05T05:55:12.282Z,100.00
2023-05-05T05:58:00.249Z,100.00
2023-05-05T06:00:49.307Z,100.00
2023-05-05T06:03:38.566Z,100.00
2023-05-05T06:06:27.886Z,100.00
2023-05-05T06:09:15.578Z,100.00
2023-05-05T06:12:04.095Z,100.00
2023-05-05T06:14:52.323Z,100.00
2023-05-05T06:17:40.403Z,100.00
2023-05-05T06:20:29.757Z,100.00
2023-05-05T06:23:17.612Z,100.00
2023-05-05T06:26:05.441Z,100.00
2023-05-05T06:28:53.565Z,100.00
2023-05-05T06:31:41.567Z,100.00
2023-05-05T06:34:29.426Z,100.00
2023-05-05T06:37:18.879Z,100.00
2023-05-05T06:40:08.177Z,99.90
2023-05-05T06:42:56.344Z,95.55
2023-05-05T06:45:44.145Z,96.98
2023-05-05T06:48:32.103Z,92.93
2023-05-05T06:51:20.361Z,94.07
2023-05-05T06:54:09.666Z,90.94
2023-05-05T06:56:59.576Z,89.27
2023-05-05T06:59:47.645Z,86.34
2023-05-05T07:02:35.829Z,86.14
2023-05-05T07:05:23.807Z,86.52
2023-05-05T07:08:11.750Z,82.25
2023-05-05T07:11:01.825Z,85.48
2023-05-05T07:13:50.167Z,82.19
2023-05-05T07:16:38.140Z,87.67
2023-05-05T07:19:25.983Z,80.99
2023-05-05T07:22:14.083Z,81.71
2023-05-05T07:25:02.624Z,80.56
2023-05-05T07:27:52.662Z,80.35
2023-05-05T07:30:40.302Z,76.31
2023-05-05T07:33:28.722Z,75.98
2023-05-05T07:36:18.819Z,78.80
2023-05-05T07:39:06.748Z,77.90
2023-05-05T07:41:54.654Z,78.39
2023-05-05T07:44:43.965Z,75.21
2023-05-05T07:47:31.809Z,75.57
2023-05-05T07:50:20.645Z,78.53
2023-05-05T07:53:14.465Z,72.56
2023-05-05T07:56:02.776Z,66.02
2023-05-05T07:58:50.264Z,72.27
2023-05-05T08:01:40.104Z,67.49
2023-05-05T08:04:28.166Z,69.50
2023-05-05T08:07:16.226Z,64.09
2023-05-05T08:10:04.117Z,64.27
2023-05-05T08:12:52.474Z,69.35
2023-05-05T08:15:40.507Z,68.41
2023-05-05T08:18:30.118Z,68.74
2023-05-05T08:21:18.482Z,67.03
2023-05-05T08:24:06.720Z,63.18
2023-05-05T08:26:54.680Z,64.23
2023-05-05T08:29:46.124Z,62.03
2023-05-05T08:32:34.242Z,63.03
2023-05-05T08:35:23.376Z,61.91
2023-05-05T08:38:11.894Z,58.21
2023-05-05T08:41:00.147Z,60.54
2023-05-05T08:43:49.237Z,59.12
2023-05-05T08:46:39.714Z,60.25
2023-05-05T08:49:30.200Z,60.19
2023-05-05T08:52:23.542Z,58.35
2023-05-05T08:55:18.318Z,56.26
2023-05-05T08:58:07.382Z,55.75
2023-05-05T09:00:56.527Z,54.63
2023-05-05T09:03:44.693Z,54.21
2023-05-05T09:06:33.809Z,50.02
2023-05-05T09:09:24.804Z,54.11
2023-05-05T09:12:12.757Z,56.48
2023-05-05T09:15:03.771Z,55.39
2023-05-05T09:17:51.724Z,52.11
2023-05-05T09:20:40.566Z,50.96
2023-05-05T09:23:28.329Z,52.16
2023-05-05T09:26:17.660Z,52.19
2023-05-05T09:29:06.353Z,51.04
2023-05-05T09:32:05.677Z,52.65
2023-05-05T09:35:01.896Z,48.92
2023-05-05T09:37:49.978Z,51.40
2023-05-05T09:40:47.701Z,51.09
2023-05-05T09:43:52.819Z,49.79
2023-05-05T09:46:52.319Z,50.60
2023-05-05T09:49:40.394Z,50.28
2023-05-05T09:52:28.916Z,46.89
2023-05-05T09:55:19.563Z,47.70
2023-05-05T09:58:23.525Z,45.86
2023-05-05T10:01:24.249Z,48.70
2023-05-05T10:04:25.500Z,48.31
2023-05-05T10:07:24.973Z,43.27
2023-05-05T10:10:16.149Z,48.29
2023-05-05T10:13:04.240Z,48.01
2023-05-05T10:15:53.923Z,48.68
2023-05-05T10:18:48.252Z,44.55
2023-05-05T10:21:42.162Z,49.28
2023-05-05T10:24:39.670Z,49.44
2023-05-05T10:27:29.437Z,47.02
2023-05-05T10:30:23.511Z,45.29
2023-05-05T10:33:31.677Z,43.83
2023-05-05T10:36:22.218Z,44.87
2023-05-05T10:39:10.990Z,45.74
2023-05-05T10:42:02.992Z,43.75
2023-05-05T10:44:51.450Z,43.00
2023-05-05T10:48:02.318Z,42.59
2023-05-05T10:50:55.094Z,42.56
2023-05-05T10:53:55.669Z,44.37
2023-05-05T10:56:44.371Z,39.87
2023-05-05T10:59:44.920Z,47.19
2023-05-05T11:02:33.314Z,46.16
2023-05-05T11:05:22.724Z,43.28
2023-05-05T11:08:26.320Z,41.98
2023-05-05T11:11:16.197Z,40.90
2023-05-05T11:14:22.291Z,41.37
2023-05-05T11:17:46.437Z,40.67
2023-05-05T11:21:20.601Z,41.34
2023-05-05T11:24:28.834Z,41.44
2023-05-05T11:27:18.313Z,41.94
2023-05-05T11:30:11.760Z,42.23
2023-05-05T11:33:26.866Z,42.45
2023-05-05T11:36:16.073Z,42.54
2023-05-05T11:39:10.785Z,42.45
2023-05-05T11:42:27.766Z,43.73
2023-05-05T11:45:23.097Z,42.57
2023-05-05T11:48:26.588Z,43.46
2023-05-05T11:51:17.644Z,42.91
2023-05-05T11:54:05.765Z,43.02
2023-05-05T11:56:54.587Z,43.47
2023-05-05T12:02:42.747Z,44.91
2023-05-05T12:05:30.842Z,44.53
2023-05-05T12:08:19.565Z,44.91
2023-05-05T12:11:09.371Z,44.82
2023-05-05T12:14:17.998Z,45.61
2023-05-05T12:17:09.943Z,44.28
2023-05-05T12:19:57.683Z,45.94
2023-05-05T12:22:45.445Z,45.98
2023-05-05T12:25:38.387Z,46.11
2023-05-05T12:28:26.258Z,46.63
2023-05-05T12:31:14.681Z,46.40
2023-05-05T12:34:04.770Z,47.61
2023-05-05T12:36:52.893Z,47.40
2023-05-05T12:39:41.110Z,47.35
2023-05-05T12:42:29.109Z,47.35
2023-05-05T12:45:19.029Z,47.98
2023-05-05T12:48:22.279Z,47.90
2023-05-05T12:51:17.906Z,48.52
2023-05-05T12:54:07.292Z,48.96
2023-05-05T12:56:56.435Z,49.73
2023-05-05T12:59:44.298Z,49.60
2023-05-05T13:02:36.037Z,49.99
2023-05-05T13:05:34.318Z,49.85
2023-05-05T13:08:23.830Z,50.39
2023-05-05T13:11:12.129Z,50.83
2023-05-05T13:13:59.878Z,51.80
2023-05-05T13:16:47.893Z,51.53
2023-05-05T13:19:41.859Z,51.08
2023-05-05T13:22:29.715Z,51.19
2023-05-05T13:25:19.276Z,50.75
2023-05-05T13:28:07.245Z,50.69
2023-05-05T13:30:55.833Z,50.30
2023-05-05T13:33:43.812Z,49.29
2023-05-05T13:36:31.583Z,49.93
2023-05-05T13:39:19.951Z,49.98
2023-05-05T13:42:09.077Z,49.68
2023-05-05T13:44:56.959Z,49.72
2023-05-05T13:47:45.153Z,50.25
2023-05-05T13:50:32.975Z,50.09
2023-05-05T13:53:21.827Z,50.97
2023-05-05T13:56:09.794Z,50.63
2023-05-05T13:58:59.149Z,51.09
2023-05-05T14:01:47.211Z,51.32
2023-05-05T14:04:36.105Z,51.75
2023-05-05T14:07:24.161Z,52.10
2023-05-05T14:10:12.258Z,52.86
2023-05-05T14:13:00.332Z,53.33
2023-05-05T14:15:50.746Z,53.50
2023-05-05T14:18:38.774Z,54.29
2023-05-05T14:21:27.707Z,54.73
2023-05-05T14:24:15.521Z,55.02
2023-05-05T14:27:04.370Z,55.70
2023-05-05T14:29:52.061Z,56.05
2023-05-05T14:32:41.527Z,56.69
2023-05-05T14:35:29.549Z,57.18
2023-05-05T14:38:18.472Z,57.79
2023-05-05T14:41:06.579Z,61.68
2023-05-05T14:43:54.740Z,61.21
2023-05-05T14:46:44.731Z,64.15
2023-05-05T14:49:35.494Z,64.65
2023-05-05T14:52:23.420Z,69.86
2023-05-05T14:55:11.964Z,69.10
2023-05-05T14:58:02.107Z,73.75
2023-05-05T15:00:49.916Z,70.54
2023-05-05T15:03:38.121Z,68.92
2023-05-05T15:06:28.123Z,77.70
2023-05-05T15:09:18.081Z,78.74
2023-05-05T15:12:06.622Z,80.06
2023-05-05T15:14:55.379Z,70.23
2023-05-05T15:17:43.636Z,76.61
2023-05-05T15:20:31.435Z,69.18
2023-05-05T15:23:21.332Z,68.84
2023-05-05T15:26:09.461Z,73.46
2023-05-05T15:28:57.614Z,68.28
2023-05-05T15:31:45.856Z,65.78
2023-05-05T15:34:33.563Z,66.12
2023-05-05T15:37:21.509Z,67.63
2023-05-05T15:40:12.677Z,66.59
2023-05-05T15:43:00.454Z,67.65
2023-05-05T15:45:48.504Z,65.63
2023-05-05T15:48:36.199Z,66.65
2023-05-05T15:51:24.239Z,65.56
2023-05-05T15:54:12.503Z,63.06
2023-05-05T15:57:03.114Z,64.65
2023-05-05T15:59:52.917Z,66.05
2023-05-05T16:02:40.998Z,66.04
2023-05-05T16:05:31.831Z,66.12
2023-05-05T16:08:19.840Z,66.63
2023-05-05T16:11:07.927Z,67.36
2023-05-05T16:13:57.293Z,68.46
2023-05-05T16:16:44.968Z,69.89
2023-05-05T16:19:33.142Z,70.34
2023-05-05T16:22:21.849Z,73.64
2023-05-05T16:25:10.393Z,72.23
2023-05-05T16:28:00.084Z,73.09
2023-05-05T16:30:49.323Z,74.18
2023-05-05T16:33:40.782Z,72.55
2023-05-05T16:36:28.920Z,72.38
2023-05-05T16:39:16.648Z,72.96
2023-05-05T16:42:04.612Z,72.96
2023-05-05T16:44:52.461Z,73.98
2023-05-05T16:47:41.731Z,74.42
2023-05-05T16:50:29.647Z,74.83
2023-05-05T16:53:18.918Z,74.82
2023-05-05T16:56:07.023Z,75.09
2023-05-05T16:58:54.712Z,75.58
2023-05-05T17:01:43.421Z,75.85
2023-05-05T17:04:32.683Z,76.05
2023-05-05T17:07:23.217Z,76.30
2023-05-05T17:10:11.806Z,76.96
2023-05-05T17:12:59.909Z,77.25
2023-05-05T17:15:47.766Z,77.12
2023-05-05T17:18:35.651Z,77.40
2023-05-05T17:21:25.092Z,77.72
2023-05-05T17:24:12.821Z,78.06
2023-05-05T17:27:00.893Z,78.48
2023-05-05T17:29:48.924Z,78.75
2023-05-05T17:32:37.204Z,80.08
2023-05-05T17:35:24.923Z,80.72
2023-05-05T17:38:14.288Z,81.31
2023-05-05T17:41:02.452Z,82.50
2023-05-05T17:43:50.401Z,82.72
2023-05-05T17:46:39.345Z,82.68
2023-05-05T17:49:27.433Z,82.43
2023-05-05T17:52:15.290Z,82.54
2023-05-05T17:55:12.898Z,88.19
2023-05-05T17:58:00.980Z,84.49
2023-05-05T18:00:51.913Z,84.61
2023-05-05T18:03:41.195Z,85.56
2023-05-05T18:06:29.396Z,85.92
2023-05-05T18:09:17.223Z,85.81
2023-05-05T18:12:07.752Z,86.56
2023-05-05T18:15:04.513Z,87.15
2023-05-05T18:17:54.099Z,87.71
2023-05-05T18:20:46.126Z,88.15
2023-05-05T18:23:36.587Z,88.75
2023-05-05T18:26:24.289Z,89.61
2023-05-05T18:29:15.985Z,90.59
2023-05-05T18:32:06.260Z,91.29
2023-05-05T18:34:53.992Z,91.73
2023-05-05T18:37:42.256Z,92.37
2023-05-05T18:40:29.892Z,93.92
2023-05-05T18:43:17.912Z,94.21
2023-05-05T18:46:07.283Z,95.13
2023-05-05T18:48:55.618Z,95.74
2023-05-05T18:51:43.498Z,97.15
2023-05-05T18:54:31.925Z,97.84
2023-05-05T18:57:20.112Z,98.75
2023-05-05T19:00:09.435Z,99.58
2023-05-05T19:02:59.582Z,100.00
2023-05-05T19:05:47.469Z,100.00
2023-05-05T19:08:37.764Z,100.00
2023-05-05T19:11:29.016Z,100.00
2023-05-05T19:14:17.735Z,100.00
2023-05-05T19:17:11.476Z,100.00
2023-05-05T19:20:01.856Z,100.00
2023-05-05T19:22:49.606Z,100.00
2023-05-05T19:25:41.461Z,100.00
2023-05-05T19:28:31.409Z,100.00
2023-05-05T19:31:19.941Z,100.00
2023-05-05T19:34:08.173Z,100.00
2023-05-05T19:36:57.729Z,100.00
2023-05-05T19:39:46.160Z,100.00
2023-05-05T19:42:36.177Z,100.00
2023-05-05T19:45:24.642Z,100.00
2023-05-05T19:48:12.757Z,100.00
2023-05-05T19:51:07.980Z,100.00
2023-05-05T19:53:57.292Z,100.00
2023-05-05T19:56:45.158Z,100.00
2023-05-05T19:59:33.978Z,100.00
2023-05-05T20:02:24.163Z,100.00
2023-05-05T20:05:14.005Z,100.00
2023-05-05T20:08:02.338Z,100.00
2023-05-05T20:10:51.694Z,100.00
2023-05-05T20:13:39.526Z,100.00
2023-05-05T20:16:27.764Z,100.00
2023-05-05T20:19:15.707Z,100.00
2023-05-05T20:22:03.708Z,100.00
2023-05-05T20:24:51.781Z,100.00
2023-05-05T20:27:41.443Z,100.00
2023-05-05T20:30:31.535Z,100.00
2023-05-05T20:33:19.761Z,100.00
2023-05-05T20:36:08.152Z,100.00
2023-05-05T20:39:01.923Z,100.00
2023-05-05T20:41:49.775Z,100.00
2023-05-05T20:44:39.992Z,100.00
2023-05-05T20:47:28.108Z,100.00
2023-05-05T20:50:17.849Z,100.00
2023-05-05T20:53:06.193Z,100.00
2023-05-05T20:55:53.992Z,100.00
2023-05-05T20:58:42.396Z,100.00
2023-05-05T21:01:31.614Z,100.00
2023-05-05T21:04:19.679Z,100.00
2023-05-05T21:07:07.785Z,100.00
2023-05-05T21:09:55.614Z,100.00
2023-05-05T21:12:43.785Z,100.00
2023-05-05T21:15:31.997Z,100.00
2023-05-05T21:18:21.050Z,100.00
2023-05-05T21:21:09.061Z,100.00
2023-05-05T21:23:57.717Z,100.00
2023-05-05T21:26:46.612Z,100.00
2023-05-05T21:29:37.634Z,100.00
2023-05-05T21:32:25.668Z,100.00
2023-05-05T21:35:15.052Z,100.00
2023-05-05T21:38:05.093Z,100.00
2023-05-05T21:40:58.284Z,100.00
2023-05-05T21:43:45.596Z,100.00
2023-05-05T21:46:34.195Z,100.00
2023-05-05T21:49:22.130Z,100.00
2023-05-05T21:52:11.313Z,100.00
2023-05-05T21:54:58.951Z,100.00
2023-05-05T21:57:47.116Z,100.00
2023-05-05T22:00:35.218Z,100.00
2023-05-05T22:03:23.109Z,100.00
2023-05-05T22:06:12.306Z,100.00
2023-05-05T22:09:01.926Z,100.00
2023-05-05T22:11:49.717Z,100.00
2023-05-05T22:14:38.133Z,100.00
2023-05-05T22:17:25.937Z,100.00
2023-05-05T22:20:14.641Z,100.00
2023-05-05T22:23:02.509Z,100.00
2023-05-05T22:25:52.303Z,100.00
2023-05-05T22:28:39.941Z,100.00
2023-05-05T22:31:29.334Z,100.00
2023-05-05T22:34:18.654Z,100.00
2023-05-05T22:37:06.765Z,100.00
2023-05-05T22:39:55.105Z,100.00
2023-05-05T22:42:44.149Z,100.00
2023-05-05T22:45:34.453Z,100.00
2023-05-05T22:48:22.908Z,100.00
2023-05-05T22:51:11.261Z,100.00
2023-05-05T22:53:59.236Z,100.00
2023-05-05T22:56:47.906Z,100.00
2023-05-05T22:59:37.029Z,100.00
2023-05-05T23:02:26.497Z,100.00
2023-05-05T23:05:14.693Z,100.00
2023-05-05T23:08:02.883Z,100.00
2023-05-05T23:10:50.677Z,100.00
2023-05-05T23:13:38.686Z,100.00
2023-05-05T23:16:28.339Z,100.00
2023-05-05T23:19:16.523Z,100.00
2023-05-05T23:22:05.149Z,100.00
2023-05-05T23:24:52.886Z,100.00
2023-05-05T23:27:41.433Z,100.00
2023-05-05T23:30:29.363Z,100.00
2023-05-05T23:33:19.402Z,100.00
2023-05-05T23:36:07.799Z,100.00
2023-05-05T23:38:55.891Z,100.00
2023-05-05T23:41:43.974Z,100.00
2023-05-05T23:44:32.323Z,100.00
2023-05-05T23:47:20.070Z,100.00
2023-05-05T23:50:10.821Z,100.00
2023-05-05T23:52:58.859Z,100.00
2023-05-05T23:55:46.989Z,100.00
2023-05-05T23:58:35.097Z,100.00
